KBVS

Details ICAO KBVS
Name SKAGIT RGNL
Region United States
Timezone America/Los_Angeles (UTC-8.0)
Plans Departing 30
Arriving 10
Stats Elevation 144 ft / 44 m (AMSL)
Location 48.469859° -122.420457°
Runways 2
Magnetic Variation 15.952° E
Sunrise 2017-12-13 15:54:55 UTC / 2017-12-13 07:54:55 Local
Sunset 2017-12-14 00:16:00 UTC / 2017-12-13 16:16:00 Local
Advertisement - Login to hide

Runways

ID Width Length Bearing (true) Bearing (mag) Surface Threshold Offset Overrun Length
04 59 ft / 18 m 2,995 ft / 913 m 56.37° 40.42° Asphalt 0 ft / 0 m 39 ft / 12 m
10 98 ft / 30 m 5,468 ft / 1,667 m 126.51° 110.56° Asphalt 0 ft / 0 m 0 ft / 0 m
22 59 ft / 18 m 2,995 ft / 913 m 236.38° 220.43° Asphalt 0 ft / 0 m 39 ft / 12 m
28 98 ft / 30 m 5,468 ft / 1,667 m 306.53° 290.58° Asphalt 0 ft / 0 m 10 ft / 3 m

Map

Weather


0- 5 10 15 20 25 30 35+ Temperature / ° C

Clouds and Precipitation
Forecast for 2017-12-14 06:00 UTC. Updated an hour ago

Ground ~20,000 ft ~40,000 ft Winds

METAR

KBVS 140615Z AUTO 00000KT 10SM CLR 03/03 A3041 RMK A01

TAF

Not found

Frequencies

Recorded 121.12 MHz AWOS 3
Approach 120.70 MHz WHIDBEY APP/DEP
Unicom 123.07 MHz CTAF/UNICOM
Warning: Do not use this data for real-world aviation or navigation. No guarantee of current accuracy is given.